Grand Junction Regional Airport
KGJT : now visible

Airfield :











YOU CAN JOIN US ON...

 
LOGIN :

Register | Disclaimer

   EN    FR    IT 

 









Legend :    VFR   Marginal VFR   IFR   Intensive IFR   Very Intensive IFR
Visi :
Ceiling :
>= 8 km
>= 3000ft
5 to 8 km
1000 to 3000 ft
1500m to 5 km
500 to 1000 ft
800 to 1500m
200 to 500 ft
< 800m
< 200 ft
Symbols :   Thunderstorms  Fog  Heavy snow  Heavy precipitations  Wind > 20 kt







- Airport Elevation : 4858 ft
- IATA code : GJT


KGJT - Grand Junction Regional

CURRENT METAR :
  • 260353Z AUTO 33003KT 10SM CLR 27/01 A2995 RMK AO2 SLP064 T02670011

EXPIRED METARs :
  • 260253Z 22003KT 10SM CLR 28/02 A2993 RMK AO2 SLP059 T02780017 53003
  • 260153Z 24011KT 10SM CLR 33/02 A2991 RMK AO2 PK WND 22026/0100 SLP048 T03280022

TAF KGJT
Valid from the 26 at 00:00 until the 27 at 00:00 UTC


252333Z 2600/2624 26016G27KT P6SM FEW180
FM260200 31007KT P6SM FEW180
FM260500 VRB04KT P6SM SKC
FM261400 24007KT P6SM SKC
FM261800 29010G18KT P6SM SKC
No reported NOTAMs for that airfield.



MET'MAP, your aeronautical weather chart ! - Copyright ORBIFLY December 2007 - Disclaimer

ORBIFLY MET'MAP TEAM :

Programming & Development : Alexandra Zaïnal
Concept & Development : Baudouin d'Aumeries
Co-Development & Prog : Marc-Olivier Méhu
Technical & hardware support : Manuel Goepfert

Contact : metmap@orbifly.com




SOURCES & CREDITS :

   NOAA       Earth
Advisory